createdAt,value
2022-09-12T00:02:04.477Z,11.31
2022-09-12T00:04:31.719Z,11.12
2022-09-12T00:06:58.703Z,11.06
2022-09-12T00:09:25.591Z,10.96
2022-09-12T00:11:52.638Z,11.12
2022-09-12T00:14:19.867Z,11.01
2022-09-12T00:16:47.444Z,11.15
2022-09-12T00:19:14.685Z,11.15
2022-09-12T00:21:41.909Z,11.11
2022-09-12T00:24:09.522Z,11.15
2022-09-12T00:26:36.713Z,11.19
2022-09-12T00:29:04.470Z,11.26
2022-09-12T00:31:31.538Z,11.21
2022-09-12T00:34:03.352Z,11.23
2022-09-12T00:36:31.403Z,11.26
2022-09-12T00:38:59.187Z,11.28
2022-09-12T00:41:29.897Z,11.30
2022-09-12T00:43:59.977Z,11.31
2022-09-12T00:46:33.425Z,11.31
2022-09-12T00:49:15.854Z,11.31
2022-09-12T00:51:54.056Z,11.29
2022-09-12T00:54:25.521Z,11.28
2022-09-12T00:56:55.971Z,11.27
2022-09-12T00:59:28.984Z,11.23
2022-09-12T01:01:56.604Z,11.21
2022-09-12T01:04:26.464Z,11.19
2022-09-12T01:06:56.185Z,11.18
2022-09-12T01:09:25.522Z,11.18
2022-09-12T01:11:53.682Z,11.18
2022-09-12T01:14:21.387Z,11.18
2022-09-12T01:16:50.025Z,11.19
2022-09-12T01:19:35.750Z,11.17
2022-09-12T01:22:24.684Z,11.16
2022-09-12T01:25:13.680Z,11.15
2022-09-12T01:27:55.854Z,11.15
2022-09-12T01:30:47.614Z,11.13
2022-09-12T01:33:37.846Z,11.07
2022-09-12T01:36:08.864Z,11.05
2022-09-12T01:38:47.529Z,11.04
2022-09-12T01:41:40.555Z,11.02
2022-09-12T01:44:37.849Z,11.00
2022-09-12T01:47:19.867Z,11.02
2022-09-12T01:50:03.222Z,10.98
2022-09-12T01:52:40.167Z,10.96
2022-09-12T01:55:09.683Z,10.96
2022-09-12T01:57:47.578Z,10.94
2022-09-12T02:00:15.126Z,10.94
2022-09-12T02:03:02.364Z,10.96
2022-09-12T02:05:36.915Z,10.95
2022-09-12T02:08:10.643Z,10.96
2022-09-12T02:11:03.781Z,10.99
2022-09-12T02:13:37.457Z,10.99
2022-09-12T02:16:44.981Z,11.02
2022-09-12T02:19:17.749Z,11.04
2022-09-12T02:21:56.000Z,11.07
2022-09-12T02:24:29.977Z,11.08
2022-09-12T02:27:40.341Z,11.08
2022-09-12T02:30:09.367Z,11.06
2022-09-12T02:32:42.669Z,11.08
2022-09-12T02:35:20.849Z,11.09
2022-09-12T02:38:11.404Z,11.12
2022-09-12T02:40:41.826Z,11.14
2022-09-12T02:43:09.169Z,11.16
2022-09-12T02:45:36.924Z,11.17
2022-09-12T02:48:26.935Z,11.18
2022-09-12T02:50:54.637Z,11.09
2022-09-12T02:53:22.640Z,11.12
2022-09-12T02:55:50.902Z,11.13
2022-09-12T02:58:23.535Z,11.14
2022-09-12T03:01:08.984Z,11.16
2022-09-12T03:03:43.169Z,11.16
2022-09-12T03:06:33.843Z,11.01
2022-09-12T03:09:15.825Z,10.92
2022-09-12T03:12:08.906Z,11.00
2022-09-12T03:14:53.847Z,11.03
2022-09-12T03:17:39.886Z,10.94
2022-09-12T03:20:41.977Z,11.01
2022-09-12T03:23:31.339Z,11.02
2022-09-12T03:26:13.674Z,11.03
2022-09-12T03:28:42.500Z,11.05
2022-09-12T03:31:17.093Z,11.06
2022-09-12T03:33:44.645Z,11.04
2022-09-12T03:36:24.275Z,11.06
2022-09-12T03:38:51.787Z,11.05
2022-09-12T03:41:19.021Z,11.06
2022-09-12T03:43:46.566Z,11.07
2022-09-12T03:46:14.371Z,11.11
2022-09-12T03:48:41.763Z,11.13
2022-09-12T03:51:10.697Z,11.14
2022-09-12T03:53:37.691Z,11.17
2022-09-12T03:56:13.640Z,11.19
2022-09-12T03:58:41.270Z,11.18
2022-09-12T04:01:12.999Z,11.21
2022-09-12T04:03:44.503Z,11.18
2022-09-12T04:06:13.988Z,11.19
2022-09-12T04:08:42.507Z,11.22
2022-09-12T04:11:13.746Z,11.11
2022-09-12T04:13:43.136Z,11.09
2022-09-12T04:16:10.516Z,11.15
2022-09-12T04:18:38.642Z,11.22
2022-09-12T04:21:07.441Z,11.27
2022-09-12T04:23:35.304Z,11.30
2022-09-12T04:26:03.987Z,11.34
2022-09-12T04:28:30.985Z,11.31
2022-09-12T04:31:03.105Z,11.35
2022-09-12T04:33:30.414Z,11.36
2022-09-12T04:35:57.397Z,11.41
2022-09-12T04:38:24.721Z,11.36
2022-09-12T04:40:51.596Z,11.37
2022-09-12T04:43:18.754Z,11.43
2022-09-12T04:45:45.722Z,11.46
2022-09-12T04:48:12.832Z,11.35
2022-09-12T04:50:39.721Z,11.28
2022-09-12T04:53:07.282Z,11.38
2022-09-12T04:55:35.650Z,11.47
2022-09-12T04:58:02.672Z,11.51
2022-09-12T05:00:29.529Z,11.61
2022-09-12T05:02:56.437Z,11.68
2022-09-12T05:05:23.383Z,11.73
2022-09-12T05:07:50.307Z,11.76
2022-09-12T05:10:18.266Z,11.75
2022-09-12T05:12:45.253Z,11.80
2022-09-12T05:15:12.149Z,11.80
2022-09-12T05:17:39.051Z,11.88
2022-09-12T05:20:06.364Z,11.87
2022-09-12T05:22:33.319Z,11.99
2022-09-12T05:25:00.325Z,11.94
2022-09-12T05:27:27.252Z,11.98
2022-09-12T05:29:54.242Z,12.03
2022-09-12T05:32:21.164Z,12.03
2022-09-12T05:34:48.060Z,12.07
2022-09-12T05:37:14.957Z,12.18
2022-09-12T05:39:41.972Z,12.00
2022-09-12T05:42:09.274Z,12.06
2022-09-12T05:44:36.433Z,12.14
2022-09-12T05:47:03.514Z,12.03
2022-09-12T05:49:30.592Z,12.22
2022-09-12T05:51:57.542Z,12.29
2022-09-12T05:54:28.315Z,12.39
2022-09-12T05:56:57.894Z,12.43
2022-09-12T05:59:24.900Z,12.46
2022-09-12T06:01:52.460Z,12.45
2022-09-12T06:04:19.503Z,12.49
2022-09-12T06:06:46.988Z,12.58
2022-09-12T06:09:16.257Z,12.54
2022-09-12T06:11:44.658Z,12.73
2022-09-12T06:14:13.530Z,12.83
2022-09-12T06:16:40.850Z,12.93
2022-09-12T06:19:20.094Z,13.11
2022-09-12T06:21:49.604Z,13.27
2022-09-12T06:24:21.098Z,13.35
2022-09-12T06:26:49.939Z,13.42
2022-09-12T06:29:16.954Z,13.59
2022-09-12T06:31:44.383Z,13.59
2022-09-12T06:34:14.302Z,13.71
2022-09-12T06:36:48.829Z,13.72
2022-09-12T06:39:18.737Z,13.88
2022-09-12T06:41:46.390Z,13.96
2022-09-12T06:44:19.456Z,14.04
2022-09-12T06:46:46.799Z,14.11
2022-09-12T06:49:14.255Z,14.20
2022-09-12T06:51:43.371Z,14.28
2022-09-12T06:54:14.128Z,14.56
2022-09-12T06:56:41.060Z,14.48
2022-09-12T06:59:08.031Z,14.59
2022-09-12T07:01:34.997Z,14.70
2022-09-12T07:04:04.268Z,14.79
2022-09-12T07:06:40.627Z,14.87
2022-09-12T07:09:10.604Z,14.64
2022-09-12T07:11:39.740Z,14.64
2022-09-12T07:14:08.635Z,14.61
2022-09-12T07:16:36.794Z,14.61
2022-09-12T07:19:06.099Z,14.75
2022-09-12T07:21:36.538Z,14.58
2022-09-12T07:24:03.689Z,14.64
2022-09-12T07:26:30.644Z,14.82
2022-09-12T07:29:18.747Z,14.77
2022-09-12T07:31:46.262Z,14.95
2022-09-12T07:34:14.050Z,14.74
2022-09-12T07:36:41.040Z,14.72
2022-09-12T07:39:08.071Z,14.89
2022-09-12T07:41:34.974Z,14.67
2022-09-12T07:44:03.313Z,14.64
2022-09-12T07:46:31.774Z,14.50
2022-09-12T07:49:00.636Z,14.73
2022-09-12T07:51:30.023Z,14.59
2022-09-12T07:53:57.752Z,14.77
2022-09-12T07:56:29.625Z,14.89
2022-09-12T07:58:58.871Z,14.83
2022-09-12T08:01:26.552Z,14.59
2022-09-12T08:03:57.413Z,14.57
2022-09-12T08:06:25.640Z,14.50
2022-09-12T08:08:55.093Z,14.79
2022-09-12T08:11:23.504Z,14.84
2022-09-12T08:13:55.659Z,14.70
2022-09-12T08:16:29.690Z,15.05
2022-09-12T08:18:57.043Z,15.07
2022-09-12T08:21:28.255Z,15.08
2022-09-12T08:24:00.945Z,14.99
2022-09-12T08:26:28.658Z,15.18
2022-09-12T08:28:55.535Z,14.84
2022-09-12T08:31:24.968Z,15.05
2022-09-12T08:33:55.810Z,14.80
2022-09-12T08:36:26.166Z,14.62
2022-09-12T08:39:01.903Z,14.95
2022-09-12T08:41:46.811Z,15.01
2022-09-12T08:44:19.929Z,14.91
2022-09-12T08:47:05.022Z,15.07
2022-09-12T08:50:03.158Z,15.27
2022-09-12T08:52:33.514Z,15.33
2022-09-12T08:55:01.920Z,15.33
2022-09-12T08:57:30.274Z,15.68
2022-09-12T08:59:57.446Z,16.00
2022-09-12T09:02:30.280Z,15.96
2022-09-12T09:05:12.135Z,16.24
2022-09-12T09:07:58.331Z,16.61
2022-09-12T09:10:33.520Z,16.58
2022-09-12T09:13:36.534Z,16.88
2022-09-12T09:16:12.958Z,17.14
2022-09-12T09:18:43.803Z,17.24
2022-09-12T09:21:26.744Z,16.94
2022-09-12T09:24:21.712Z,16.57
2022-09-12T09:26:58.737Z,16.75
2022-09-12T09:29:37.841Z,16.75
2022-09-12T09:32:15.485Z,16.68
2022-09-12T09:34:42.728Z,17.03
2022-09-12T09:37:15.629Z,16.81
2022-09-12T09:40:37.074Z,16.86
2022-09-12T09:43:20.437Z,16.49
2022-09-12T09:45:48.041Z,16.58
2022-09-12T09:48:31.748Z,16.37
2022-09-12T09:51:05.269Z,16.42
2022-09-12T09:53:43.265Z,16.35
2022-09-12T09:56:29.563Z,16.44
2022-09-12T09:58:56.817Z,16.33
2022-09-12T10:01:24.965Z,16.45
2022-09-12T10:03:56.528Z,16.54
2022-09-12T10:06:34.528Z,16.68
2022-09-12T10:09:20.314Z,17.02
2022-09-12T10:11:50.302Z,17.41
2022-09-12T10:14:38.704Z,17.35
2022-09-12T10:17:46.580Z,17.50
2022-09-12T10:20:33.685Z,17.27
2022-09-12T10:23:04.079Z,17.25
2022-09-12T10:25:31.162Z,16.97
2022-09-12T10:28:01.195Z,17.31
2022-09-12T10:30:28.751Z,16.83
2022-09-12T10:33:08.434Z,16.60
2022-09-12T10:35:48.785Z,17.02
2022-09-12T10:38:26.929Z,16.94
2022-09-12T10:41:10.452Z,16.90
2022-09-12T10:43:39.645Z,16.99
2022-09-12T10:46:18.435Z,17.33
2022-09-12T10:49:14.849Z,17.43
2022-09-12T10:51:42.013Z,17.56
2022-09-12T10:54:11.600Z,17.42
2022-09-12T10:56:47.588Z,17.56
2022-09-12T10:59:34.272Z,17.92
2022-09-12T11:02:30.551Z,17.55
2022-09-12T11:05:19.444Z,17.97
2022-09-12T11:08:03.821Z,17.95
2022-09-12T11:10:42.535Z,18.39
2022-09-12T11:13:30.217Z,18.67
2022-09-12T11:16:15.653Z,19.53
2022-09-12T11:19:20.157Z,19.95
2022-09-12T11:21:59.262Z,20.48
2022-09-12T11:24:49.648Z,20.33
2022-09-12T11:27:37.370Z,20.22
2022-09-12T11:30:11.046Z,20.51
2022-09-12T11:33:00.366Z,20.42
2022-09-12T11:35:33.497Z,20.67
2022-09-12T11:38:21.799Z,20.46
2022-09-12T11:40:52.361Z,20.56
2022-09-12T11:43:45.163Z,20.46
2022-09-12T11:46:18.455Z,20.70
2022-09-12T11:49:13.503Z,20.48
2022-09-12T11:51:50.999Z,20.28
2022-09-12T11:54:30.556Z,19.82
2022-09-12T11:57:08.013Z,19.87
2022-09-12T11:59:40.649Z,19.29
2022-09-12T12:02:14.554Z,19.28
2022-09-12T12:04:56.096Z,18.77
2022-09-12T12:07:23.058Z,18.39
2022-09-12T12:09:52.379Z,18.25
2022-09-12T12:12:25.208Z,18.05
2022-09-12T12:14:54.962Z,18.12
2022-09-12T12:17:26.323Z,18.29
2022-09-12T12:20:08.422Z,18.01
2022-09-12T12:22:36.167Z,18.01
2022-09-12T12:25:05.651Z,17.88
2022-09-12T12:27:45.048Z,18.08
2022-09-12T12:30:33.566Z,17.91
2022-09-12T12:33:23.022Z,18.11
2022-09-12T12:35:59.594Z,17.87
2022-09-12T12:38:33.480Z,17.88
2022-09-12T12:41:18.663Z,17.75
2022-09-12T12:43:53.259Z,17.82
2022-09-12T12:46:22.820Z,17.58
2022-09-12T12:48:52.410Z,17.63
2022-09-12T12:51:28.535Z,17.64
2022-09-12T12:53:55.919Z,17.96
2022-09-12T12:56:35.471Z,17.99
2022-09-12T12:59:16.431Z,17.85
2022-09-12T13:02:18.544Z,17.59
2022-09-12T13:04:46.000Z,17.67
2022-09-12T13:07:26.364Z,17.58
2022-09-12T13:09:54.715Z,17.31
2022-09-12T13:12:34.723Z,17.11
2022-09-12T13:15:04.173Z,17.22
2022-09-12T13:17:33.843Z,16.99
2022-09-12T13:20:29.895Z,16.94
2022-09-12T13:22:58.293Z,16.70
2022-09-12T13:25:34.313Z,16.73
2022-09-12T13:28:01.234Z,16.53
2022-09-12T13:30:31.490Z,16.40
2022-09-12T13:33:10.152Z,16.43
2022-09-12T13:35:55.608Z,16.28
2022-09-12T13:38:26.330Z,16.22
2022-09-12T13:41:01.963Z,16.07
2022-09-12T13:43:49.590Z,16.05
2022-09-12T13:46:28.474Z,16.12
2022-09-12T13:48:56.185Z,16.15
2022-09-12T13:51:29.812Z,16.01
2022-09-12T13:54:03.601Z,15.96
2022-09-12T13:56:30.846Z,15.82
2022-09-12T13:59:00.990Z,15.98
2022-09-12T14:01:45.708Z,15.96
2022-09-12T14:04:38.329Z,15.97
2022-09-12T14:07:26.127Z,15.72
2022-09-12T14:09:56.081Z,15.58
2022-09-12T14:12:32.468Z,15.43
2022-09-12T14:14:59.327Z,15.28
2022-09-12T14:17:34.916Z,15.29
2022-09-12T14:20:07.166Z,15.32
2022-09-12T14:22:35.938Z,15.10
2022-09-12T14:25:03.913Z,15.07
2022-09-12T14:27:45.865Z,14.97
2022-09-12T14:30:34.181Z,14.98
2022-09-12T14:33:10.054Z,15.06
2022-09-12T14:36:06.374Z,15.05
2022-09-12T14:38:40.746Z,15.04
2022-09-12T14:41:10.102Z,15.13
2022-09-12T14:43:41.648Z,15.17
2022-09-12T14:46:19.801Z,15.17
2022-09-12T14:48:51.738Z,15.27
2022-09-12T14:51:27.505Z,15.20
2022-09-12T14:53:54.920Z,15.14
2022-09-12T14:56:36.888Z,15.14
2022-09-12T14:59:34.808Z,15.24
2022-09-12T15:02:14.440Z,15.03
2022-09-12T15:04:48.075Z,15.03
2022-09-12T15:07:41.468Z,15.00
2022-09-12T15:10:23.127Z,14.84
2022-09-12T15:12:50.200Z,14.80
2022-09-12T15:15:20.100Z,14.80
2022-09-12T15:17:47.415Z,14.61
2022-09-12T15:20:14.592Z,14.67
2022-09-12T15:22:42.817Z,14.53
2022-09-12T15:25:12.594Z,14.44
2022-09-12T15:27:41.028Z,14.37
2022-09-12T15:30:13.295Z,14.31
2022-09-12T15:32:42.535Z,14.22
2022-09-12T15:35:18.278Z,14.11
2022-09-12T15:37:45.688Z,14.02
2022-09-12T15:40:13.335Z,13.85
2022-09-12T15:42:40.580Z,13.87
2022-09-12T15:45:28.681Z,13.84
2022-09-12T15:47:56.266Z,13.77
2022-09-12T15:50:23.525Z,13.67
2022-09-12T15:52:50.586Z,13.66
2022-09-12T15:55:23.498Z,13.51
2022-09-12T15:57:50.712Z,13.49
2022-09-12T16:00:18.936Z,13.47
2022-09-12T16:02:48.050Z,13.46
2022-09-12T16:05:18.078Z,13.43
2022-09-12T16:07:45.507Z,13.36
2022-09-12T16:10:18.507Z,13.32
2022-09-12T16:12:46.243Z,13.29
2022-09-12T16:15:20.127Z,13.27
2022-09-12T16:17:47.638Z,13.18
2022-09-12T16:20:14.679Z,13.16
2022-09-12T16:22:42.257Z,13.10
2022-09-12T16:25:09.692Z,13.09
2022-09-12T16:27:38.264Z,13.00
2022-09-12T16:30:07.457Z,12.99
2022-09-12T16:32:34.411Z,12.95
2022-09-12T16:35:02.067Z,12.94
2022-09-12T16:37:32.398Z,12.89
2022-09-12T16:39:59.586Z,12.88
2022-09-12T16:42:26.561Z,12.87
2022-09-12T16:44:53.451Z,12.79
2022-09-12T16:47:20.442Z,12.80
2022-09-12T16:49:47.389Z,12.69
2022-09-12T16:52:16.688Z,12.68
2022-09-12T16:54:47.157Z,12.71
2022-09-12T16:57:14.079Z,12.69
2022-09-12T16:59:41.057Z,12.63
2022-09-12T17:02:14.441Z,12.59
2022-09-12T17:04:41.782Z,12.56
2022-09-12T17:07:09.357Z,12.57
2022-09-12T17:09:36.564Z,12.61
2022-09-12T17:12:03.916Z,12.57
2022-09-12T17:14:31.001Z,12.68
2022-09-12T17:16:57.998Z,12.76
2022-09-12T17:19:29.762Z,12.78
2022-09-12T17:21:57.934Z,12.88
2022-09-12T17:24:25.554Z,12.93
2022-09-12T17:26:53.764Z,12.97
2022-09-12T17:29:21.420Z,13.03
2022-09-12T17:31:49.007Z,13.06
2022-09-12T17:34:17.729Z,13.05
2022-09-12T17:36:46.245Z,12.98
2022-09-12T17:39:13.790Z,13.06
2022-09-12T17:41:45.872Z,13.03
2022-09-12T17:44:15.323Z,13.04
2022-09-12T17:46:43.566Z,13.05
2022-09-12T17:49:22.171Z,12.99
2022-09-12T17:51:49.566Z,13.08
2022-09-12T17:54:18.270Z,13.13
2022-09-12T17:56:46.721Z,13.08
2022-09-12T17:59:16.350Z,13.13
2022-09-12T18:02:02.688Z,13.17
2022-09-12T18:04:29.965Z,13.13
2022-09-12T18:06:57.749Z,13.16
2022-09-12T18:09:28.067Z,13.17
2022-09-12T18:11:55.481Z,13.10
2022-09-12T18:14:22.650Z,13.17
2022-09-12T18:16:50.126Z,13.20
2022-09-12T18:19:18.919Z,13.26
2022-09-12T18:21:45.992Z,13.25
2022-09-12T18:24:13.123Z,13.24
2022-09-12T18:26:40.249Z,13.22
2022-09-12T18:29:07.893Z,13.17
2022-09-12T18:31:34.938Z,13.25
2022-09-12T18:34:02.735Z,13.25
2022-09-12T18:36:30.512Z,13.20
2022-09-12T18:38:58.857Z,13.16
2022-09-12T18:41:26.867Z,13.19
2022-09-12T18:43:58.782Z,13.23
2022-09-12T18:46:27.627Z,13.29
2022-09-12T18:48:59.050Z,13.29
2022-09-12T18:51:31.802Z,13.23
2022-09-12T18:54:07.167Z,13.13
2022-09-12T18:56:37.702Z,13.23
2022-09-12T18:59:07.020Z,13.16
2022-09-12T19:01:38.398Z,13.18
2022-09-12T19:04:07.810Z,13.17
2022-09-12T19:06:37.533Z,13.15
2022-09-12T19:09:07.961Z,13.19
2022-09-12T19:11:38.272Z,13.17
2022-09-12T19:14:05.850Z,13.13
2022-09-12T19:16:33.719Z,13.18
2022-09-12T19:19:03.984Z,13.15
2022-09-12T19:21:31.950Z,13.16
2022-09-12T19:24:10.256Z,13.15
2022-09-12T19:26:39.016Z,13.18
2022-09-12T19:29:06.651Z,13.17
2022-09-12T19:31:34.118Z,13.13
2022-09-12T19:34:03.236Z,13.06
2022-09-12T19:36:47.224Z,13.05
2022-09-12T19:39:16.188Z,13.07
2022-09-12T19:41:43.806Z,13.04
2022-09-12T19:44:11.645Z,12.92
2022-09-12T19:46:38.916Z,12.85
2022-09-12T19:49:05.872Z,12.88
2022-09-12T19:51:32.779Z,12.93
2022-09-12T19:53:59.689Z,12.98
2022-09-12T19:56:26.622Z,12.95
2022-09-12T19:58:56.564Z,12.97
2022-09-12T20:01:28.619Z,12.96
2022-09-12T20:03:57.395Z,12.97
2022-09-12T20:06:24.971Z,12.88
2022-09-12T20:08:51.933Z,12.86
2022-09-12T20:11:21.647Z,12.83
2022-09-12T20:13:49.084Z,12.87
2022-09-12T20:16:29.667Z,12.86
2022-09-12T20:18:59.797Z,12.79
2022-09-12T20:21:31.889Z,12.91
2022-09-12T20:24:01.426Z,12.90
2022-09-12T20:26:28.724Z,12.91
2022-09-12T20:28:56.931Z,12.93
2022-09-12T20:31:23.866Z,12.90
2022-09-12T20:33:52.055Z,12.91
2022-09-12T20:36:21.127Z,12.91
2022-09-12T20:38:53.355Z,12.81
2022-09-12T20:41:21.748Z,12.90
2022-09-12T20:43:56.250Z,12.93
2022-09-12T20:46:25.364Z,12.92
2022-09-12T20:48:52.839Z,12.97
2022-09-12T20:51:21.423Z,12.98
2022-09-12T20:53:48.720Z,12.98
2022-09-12T20:56:15.721Z,12.97
2022-09-12T20:58:44.395Z,12.99
2022-09-12T21:01:13.968Z,12.99
2022-09-12T21:03:42.215Z,12.99
2022-09-12T21:06:10.640Z,12.98
2022-09-12T21:08:37.679Z,12.99
2022-09-12T21:11:05.874Z,13.00
2022-09-12T21:13:33.083Z,12.98
2022-09-12T21:16:01.604Z,12.93
2022-09-12T21:18:29.114Z,12.97
2022-09-12T21:20:56.646Z,12.97
2022-09-12T21:23:25.008Z,12.97
2022-09-12T21:25:52.837Z,12.96
2022-09-12T21:28:21.171Z,12.95
2022-09-12T21:30:49.237Z,12.95
2022-09-12T21:33:16.913Z,12.88
2022-09-12T21:35:44.505Z,12.90
2022-09-12T21:38:11.863Z,12.90
2022-09-12T21:40:38.817Z,12.92
2022-09-12T21:43:09.231Z,12.90
2022-09-12T21:45:38.879Z,12.85
2022-09-12T21:48:05.811Z,12.92
2022-09-12T21:50:32.776Z,12.92
2022-09-12T21:52:59.888Z,12.86
2022-09-12T21:55:27.384Z,12.90
2022-09-12T21:57:55.222Z,12.91
2022-09-12T22:00:22.838Z,12.89
2022-09-12T22:02:49.845Z,12.89
2022-09-12T22:05:17.503Z,12.90
2022-09-12T22:07:44.820Z,12.88
2022-09-12T22:10:11.788Z,12.88
2022-09-12T22:12:42.842Z,12.85
2022-09-12T22:15:36.499Z,12.90
2022-09-12T22:17:59.879Z,12.82
2022-09-12T22:20:26.798Z,12.82
2022-09-12T22:23:12.493Z,12.79
2022-09-12T22:25:39.781Z,12.77
2022-09-12T22:28:07.200Z,12.80
2022-09-12T22:30:34.200Z,12.78
2022-09-12T22:33:01.240Z,12.78
2022-09-12T22:35:28.197Z,12.76
2022-09-12T22:37:55.116Z,12.74
2022-09-12T22:40:22.150Z,12.75
2022-09-12T22:42:52.466Z,12.74
2022-09-12T22:45:20.052Z,12.76
2022-09-12T22:47:47.295Z,12.77
2022-09-12T22:50:14.366Z,12.75
2022-09-12T22:52:41.729Z,12.62
2022-09-12T22:55:09.217Z,12.63
2022-09-12T22:57:37.861Z,12.65
2022-09-12T23:00:08.734Z,12.60
2022-09-12T23:02:35.688Z,12.59
2022-09-12T23:05:03.096Z,12.58
2022-09-12T23:07:30.491Z,12.56
2022-09-12T23:09:57.412Z,12.53
2022-09-12T23:12:24.472Z,12.53
2022-09-12T23:14:51.415Z,12.53
2022-09-12T23:17:18.421Z,12.56
2022-09-12T23:19:45.719Z,12.56
2022-09-12T23:22:12.675Z,12.54
2022-09-12T23:24:39.701Z,12.52
2022-09-12T23:27:06.610Z,12.51
2022-09-12T23:29:35.483Z,12.47
2022-09-12T23:32:04.805Z,12.44
2022-09-12T23:34:33.656Z,12.42
2022-09-12T23:37:00.704Z,12.38
2022-09-12T23:39:27.737Z,12.33
2022-09-12T23:41:55.095Z,12.25
2022-09-12T23:44:21.946Z,12.25
2022-09-12T23:46:48.884Z,12.26
2022-09-12T23:49:15.875Z,12.21
2022-09-12T23:51:42.752Z,12.26
2022-09-12T23:54:09.623Z,12.24
2022-09-12T23:56:36.485Z,12.23
2022-09-12T23:59:03.449Z,12.16
